Time;durP1;ratioP1;P1;durP2;ratioP2;P2;SDS_P1;SDS_P2;PMS_P1;PMS_P2;Temp;Humidity;BMP_temperature;BMP_pressure;BME280_temperature;BME280_humidity;BME280_pressure;Samples;Min_cycle;Max_cycle;Signal;HPM_P1;HPM_P2
2022/06/12 00:00:27;;;;;;;;;;;;;;;15.26;100.00;96457.53;1035321;28;20267;-71
2022/06/12 00:00:58;;;;;;;;;;;;;;;15.23;100.00;96456.22;1034414;28;19910;-72
2022/06/12 00:01:28;;;;;;;;;;;;;;;15.21;100.00;96466.28;1043658;28;19952;-71
2022/06/12 00:01:58;;;;;;;;;;;;;;;15.17;100.00;96457.31;1035979;28;19913;-70
2022/06/12 00:02:28;;;;;;;;;;;;;;;15.22;100.00;96453.84;1035271;28;19988;-71
2022/06/12 00:02:59;;;;;;;;;;;;;;;15.22;100.00;96451.97;1036841;28;19914;-73
2022/06/12 00:03:32;;;;;;;;;;;;;;;15.22;100.00;96459.91;1035465;28;19909;-71
2022/06/12 00:04:02;;;;;;;;;;;;;;;15.17;100.00;96453.88;1039586;28;20325;-71
2022/06/12 00:04:35;;;;;;;;;;;;;;;15.16;100.00;96457.59;1039406;28;20410;-72
2022/06/12 00:05:06;;;;;;;;;;;;;;;15.15;100.00;96456.00;1035752;28;19925;-72
2022/06/12 00:05:37;;;;;;;;;;;;;;;15.17;100.00;96454.69;1039639;28;20414;-71
2022/06/12 00:06:07;;;;;;;;;;;;;;;15.16;100.00;96458.38;1035276;28;19910;-72
2022/06/12 00:06:37;;;;;;;;;;;;;;;15.14;100.00;96452.56;1035695;28;20389;-71
2022/06/12 00:07:07;;;;;;;;;;;;;;;15.12;100.00;96456.56;1036183;28;19917;-71
2022/06/12 00:07:38;;;;;;;;;;;;;;;15.12;100.00;96462.63;1035478;28;19921;-71
2022/06/12 00:08:09;;;;;;;;;;;;;;;15.14;100.00;96449.94;1038072;28;20016;-71
2022/06/12 00:08:39;;;;;;;;;;;;;;;15.16;100.00;96455.75;1035374;28;19913;-74
2022/06/12 00:09:09;;;;;;;;;;;;;;;15.15;100.00;96459.44;1031166;28;19921;-71
2022/06/12 00:09:39;;;;;;;;;;;;;;;15.18;100.00;96445.66;1031365;28;20005;-71
2022/06/12 00:10:10;;;;;;;;;;;;;;;15.18;100.00;96450.16;1031263;28;19921;-71
2022/06/12 00:10:44;;;;;;;;;;;;;;;15.17;100.00;96456.53;1032051;28;19918;-71
2022/06/12 00:11:16;;;;;;;;;;;;;;;15.15;100.00;96456.78;1035151;28;19957;-72
2022/06/12 00:11:46;;;;;;;;;;;;;;;15.18;100.00;96453.59;1032066;28;19924;-71
2022/06/12 00:12:17;;;;;;;;;;;;;;;15.22;100.00;96457.28;1034852;28;19917;-69
2022/06/12 00:12:48;;;;;;;;;;;;;;;15.20;100.00;96454.13;1035670;28;19913;-72
2022/06/12 00:13:20;;;;;;;;;;;;;;;15.17;100.00;96451.25;1035314;28;19918;-71
2022/06/12 00:14:00;;;;;;;;;;;;;;;15.18;100.00;96450.97;1035457;28;20008;-71
2022/06/12 00:14:30;;;;;;;;;;;;;;;15.22;100.00;96451.19;1031493;28;19936;-71
2022/06/12 00:15:01;;;;;;;;;;;;;;;15.22;100.00;96451.19;1028918;28;19914;-72
2022/06/12 00:15:31;;;;;;;;;;;;;;;15.19;100.00;96449.91;1029855;28;19911;-71
2022/06/12 00:16:02;;;;;;;;;;;;;;;15.20;100.00;96454.13;1030282;28;19918;-72
2022/06/12 00:16:32;;;;;;;;;;;;;;;15.24;100.00;96443.78;1027186;28;19981;-72
2022/06/12 00:17:03;;;;;;;;;;;;;;;15.29;100.00;96451.69;1027461;28;20395;-70
2022/06/12 00:17:33;;;;;;;;;;;;;;;15.29;100.00;96447.19;1027438;28;20302;-71
2022/06/12 00:18:03;;;;;;;;;;;;;;;15.39;100.00;96445.53;1031150;28;19917;-72
2022/06/12 00:18:34;;;;;;;;;;;;;;;15.38;100.00;96449.25;1031400;28;19914;-70
2022/06/12 00:19:04;;;;;;;;;;;;;;;15.36;100.00;96446.91;1035436;28;20302;-69
2022/06/12 00:19:35;;;;;;;;;;;;;;;15.35;100.00;96444.50;1039410;28;19983;-71
2022/06/12 00:20:05;;;;;;;;;;;;;;;15.38;100.00;96439.47;1035254;28;19918;-72
2022/06/12 00:20:36;;;;;;;;;;;;;;;15.37;100.00;96442.38;1035890;28;20279;-73
2022/06/12 00:21:13;;;;;;;;;;;;;;;15.38;100.00;96438.66;1035464;28;19917;-71
2022/06/12 00:21:43;;;;;;;;;;;;;;;15.41;100.00;96438.91;1032165;28;19921;-72
2022/06/12 00:22:14;;;;;;;;;;;;;;;15.44;100.00;96448.16;1037450;28;19971;-73
2022/06/12 00:22:44;;;;;;;;;;;;;;;15.49;100.00;96440.16;1039324;28;20297;-69
2022/06/12 00:23:15;;;;;;;;;;;;;;;15.48;100.00;96438.59;1036379;28;19917;-71
2022/06/12 00:23:46;;;;;;;;;;;;;;;15.45;100.00;96439.94;1039229;28;19974;-72
2022/06/12 00:24:18;;;;;;;;;;;;;;;15.50;100.00;96442.56;1035542;28;19918;-71
2022/06/12 00:24:48;;;;;;;;;;;;;;;15.50;100.00;96441.78;1027732;28;19914;-71
2022/06/12 00:25:18;;;;;;;;;;;;;;;15.47;100.00;96442.31;1031295;28;20391;-71
2022/06/12 00:25:49;;;;;;;;;;;;;;;15.43;100.00;96443.94;1027330;28;19933;-71
2022/06/12 00:26:26;;;;;;;;;;;;;;;15.46;100.00;96438.06;1031553;28;20004;-71
2022/06/12 00:26:58;;;;;;;;;;;;;;;15.51;100.00;96438.03;1031254;28;19910;-71
2022/06/12 00:27:28;;;;;;;;;;;;;;;15.50;100.00;96439.13;1031088;28;20272;-71
2022/06/12 00:27:58;;;;;;;;;;;;;;;15.48;100.00;96443.88;1031243;28;19922;-70
2022/06/12 00:28:28;;;;;;;;;;;;;;;15.47;100.00;96442.31;1031516;28;19914;-71
2022/06/12 00:29:00;;;;;;;;;;;;;;;15.50;100.00;96439.91;1034876;28;20000;-71
2022/06/12 00:29:31;;;;;;;;;;;;;;;15.48;100.00;96441.25;1030967;28;20009;-71
2022/06/12 00:30:02;;;;;;;;;;;;;;;15.46;100.00;96438.88;1031058;28;20556;-71
2022/06/12 00:30:32;;;;;;;;;;;;;;;15.44;100.00;96443.66;1031186;28;19978;-72
2022/06/12 00:31:03;;;;;;;;;;;;;;;15.43;100.00;96441.28;1031773;28;20196;-73
2022/06/12 00:31:34;;;;;;;;;;;;;;;15.40;100.00;96442.63;1035333;28;20465;-71
2022/06/12 00:32:05;;;;;;;;;;;;;;;15.37;100.00;96439.75;1034429;28;20383;-71
2022/06/12 00:32:35;;;;;;;;;;;;;;;15.35;100.00;96439.22;1035121;28;19921;-71
2022/06/12 00:33:06;;;;;;;;;;;;;;;15.32;100.00;96441.38;1035472;28;20444;-73
2022/06/12 00:33:36;;;;;;;;;;;;;;;15.29;100.00;96438.47;1039355;28;20286;-71
2022/06/12 00:34:07;;;;;;;;;;;;;;;15.26;100.00;96441.69;1039068;28;20011;-72
2022/06/12 00:34:41;;;;;;;;;;;;;;;15.24;100.00;96447.22;1035462;28;19918;-71
2022/06/12 00:35:12;;;;;;;;;;;;;;;15.23;100.00;96437.72;1039383;28;19996;-74
2022/06/12 00:35:42;;;;;;;;;;;;;;;15.23;100.00;96445.66;1039387;28;19944;-72
2022/06/12 00:36:12;;;;;;;;;;;;;;;15.23;100.00;96439.56;1039246;28;19913;-71
2022/06/12 00:36:43;;;;;;;;;;;;;;;15.22;100.00;96441.41;1039497;28;20006;-74
2022/06/12 00:37:13;;;;;;;;;;;;;;;15.20;100.00;96435.63;1039172;28;20355;-71
2022/06/12 00:37:44;;;;;;;;;;;;;;;15.22;100.00;96436.13;1035306;28;19921;-71
2022/06/12 00:38:14;;;;;;;;;;;;;;;15.22;100.00;96436.13;1031190;28;20001;-73
2022/06/12 00:38:45;;;;;;;;;;;;;;;15.19;100.00;96446.47;1031170;28;19912;-71
2022/06/12 00:39:15;;;;;;;;;;;;;;;15.17;100.00;96435.38;1035212;28;19925;-72
2022/06/12 00:39:46;;;;;;;;;;;;;;;15.19;100.00;96430.59;1031287;28;19921;-71
2022/06/12 00:40:17;;;;;;;;;;;;;;;15.17;100.00;96441.44;1035395;28;19909;-74
2022/06/12 00:40:47;;;;;;;;;;;;;;;15.16;100.00;96437.25;1035028;28;19949;-72
2022/06/12 00:41:18;;;;;;;;;;;;;;;15.15;100.00;96440.16;1035556;28;19914;-70
2022/06/12 00:41:49;;;;;;;;;;;;;;;15.11;100.00;96442.53;1039171;28;19971;-72
2022/06/12 00:42:25;;;;;;;;;;;;;;;15.09;100.00;96437.53;1038829;28;19917;-74
2022/06/12 00:42:57;;;;;;;;;;;;;;;15.08;100.00;96440.44;1043858;28;19916;-72
2022/06/12 00:43:31;;;;;;;;;;;;;;;15.06;100.00;96434.66;1039313;28;20211;-70
2022/06/12 00:44:02;;;;;;;;;;;;;;;15.03;100.00;96438.63;1039278;28;20004;-71
2022/06/12 00:44:34;;;;;;;;;;;;;;;15.04;100.00;96440.19;1035145;28;19914;-73
2022/06/12 00:45:24;;;;;;;;;;;;;;;15.03;100.00;96437.84;1032204;28;19965;-72
2022/06/12 00:45:55;;;;;;;;;;;;;;;15.03;100.00;96437.84;1032432;28;20402;-71
2022/06/12 00:46:35;;;;;;;;;;;;;;;14.99;100.00;96437.59;1033971;28;20402;-70
2022/06/12 00:47:12;;;;;;;;;;;;;;;14.99;100.00;96436.78;1039617;28;19976;-72
2022/06/12 00:47:42;;;;;;;;;;;;;;;14.99;100.00;96437.59;1039334;28;19963;-72
2022/06/12 00:48:13;;;;;;;;;;;;;;;14.96;100.00;96432.88;1039419;28;19913;-71
2022/06/12 00:48:44;;;;;;;;;;;;;;;14.94;100.00;96434.97;1039181;28;20235;-69
2022/06/12 00:49:19;;;;;;;;;;;;;;;14.92;100.00;96434.44;1039322;28;20440;-72
2022/06/12 00:49:51;;;;;;;;;;;;;;;14.95;100.00;96430.47;1035135;28;20128;-71
2022/06/12 00:50:21;;;;;;;;;;;;;;;14.92;100.00;96433.66;1031333;28;19957;-71
2022/06/12 00:50:55;;;;;;;;;;;;;;;14.89;100.00;96434.22;1030907;28;20426;-71
2022/06/12 00:51:25;;;;;;;;;;;;;;;14.89;100.00;96439.50;1031818;28;19920;-72
2022/06/12 00:52:09;;;;;;;;;;;;;;;14.87;100.00;96439.78;1031123;28;19910;-71
2022/06/12 00:52:41;;;;;;;;;;;;;;;14.82;100.00;96432.69;1032216;28;20417;-71
2022/06/12 00:53:13;;;;;;;;;;;;;;;14.78;100.00;96439.53;1033241;28;19914;-72
2022/06/12 00:53:45;;;;;;;;;;;;;;;14.74;100.00;96433.22;1025398;28;19914;-71
2022/06/12 00:54:16;;;;;;;;;;;;;;;14.72;100.00;96438.00;1023976;28;19914;-71
2022/06/12 00:54:47;;;;;;;;;;;;;;;14.73;100.00;96436.16;1024015;28;19919;-71
2022/06/12 00:55:24;;;;;;;;;;;;;;;14.75;100.00;96437.44;1024092;28;19917;-72
2022/06/12 00:56:11;;;;;;;;;;;;;;;14.75;100.00;96436.66;1028111;28;19996;-71
2022/06/12 00:56:47;;;;;;;;;;;;;;;14.73;100.00;96438.78;1030578;28;20586;-72
2022/06/12 00:57:18;;;;;;;;;;;;;;;14.74;100.00;96435.88;1035024;28;20303;-71
2022/06/12 00:57:48;;;;;;;;;;;;;;;14.71;100.00;96441.69;1034515;28;19948;-70
2022/06/12 00:58:20;;;;;;;;;;;;;;;14.72;100.00;96430.09;1032066;28;19953;-71
2022/06/12 00:58:53;;;;;;;;;;;;;;;14.73;100.00;96433.50;1031035;28;20006;-72
2022/06/12 00:59:42;;;;;;;;;;;;;;;14.73;100.00;96439.59;1026773;28;19914;-70
2022/06/12 01:00:14;;;;;;;;;;;;;;;14.76;100.00;96431.13;1030210;28;19913;-71
2022/06/12 01:00:44;;;;;;;;;;;;;;;14.71;100.00;96432.97;1025957;28;20006;-70
2022/06/12 01:01:18;;;;;;;;;;;;;;;14.74;100.00;96432.44;1027898;28;20797;-71
2022/06/12 01:01:49;;;;;;;;;;;;;;;14.78;100.00;96434.25;1027089;28;20395;-72
2022/06/12 01:02:27;;;;;;;;;;;;;;;14.79;100.00;96421.88;1023218;28;20310;-71
2022/06/12 01:02:59;;;;;;;;;;;;;;;14.76;100.00;96425.84;1030173;28;20375;-71
2022/06/12 01:03:29;;;;;;;;;;;;;;;14.76;100.00;96422.41;1036595;28;19917;-71
2022/06/12 01:06:36;;;;;;;;;;;;;;;14.75;100.00;96426.88;1036781;28;19956;-72
2022/06/12 01:07:10;;;;;;;;;;;;;;;14.77;100.00;96426.63;1032118;28;20001;-73
2022/06/12 01:07:41;;;;;;;;;;;;;;;14.79;100.00;96427.94;1031237;28;19945;-73
2022/06/12 01:08:11;;;;;;;;;;;;;;;14.78;100.00;96431.63;1034238;28;19919;-72
2022/06/12 01:08:42;;;;;;;;;;;;;;;14.79;100.00;96427.94;1027701;28;19921;-72
2022/06/12 01:09:16;;;;;;;;;;;;;;;14.79;100.00;96427.16;1031266;28;19936;-71
2022/06/12 01:09:47;;;;;;;;;;;;;;;14.78;100.00;96423.69;1030874;28;19953;-73
2022/06/12 01:10:17;;;;;;;;;;;;;;;14.79;100.00;96424.50;1027802;28;20560;-72
2022/06/12 01:10:48;;;;;;;;;;;;;;;14.80;100.00;96424.22;1027600;28;19968;-72
2022/06/12 01:11:22;;;;;;;;;;;;;;;14.81;100.00;96425.78;1026978;28;19914;-71
2022/06/12 01:11:53;;;;;;;;;;;;;;;14.78;100.00;96426.34;1031329;28;19924;-70
2022/06/12 01:12:24;;;;;;;;;;;;;;;14.79;100.00;96422.66;1031130;28;19961;-70
2022/06/12 01:12:55;;;;;;;;;;;;;;;14.81;100.00;96425.78;1031711;28;19918;-72
2022/06/12 01:13:27;;;;;;;;;;;;;;;14.84;100.00;96427.09;1030926;28;19924;-70
2022/06/12 01:13:57;;;;;;;;;;;;;;;14.85;100.00;96421.56;1027598;28;19918;-72
2022/06/12 01:14:29;;;;;;;;;;;;;;;14.87;100.00;96420.50;1027118;28;19918;-71
2022/06/12 01:15:01;;;;;;;;;;;;;;;14.84;100.00;96424.47;1023018;29;19918;-71
2022/06/12 01:15:41;;;;;;;;;;;;;;;14.84;100.00;96424.47;1019452;29;19962;-72
2022/06/12 01:16:12;;;;;;;;;;;;;;;14.83;100.00;96428.19;1024713;28;19921;-72
2022/06/12 01:16:46;;;;;;;;;;;;;;;14.82;100.00;96423.94;1028679;28;19992;-72
2022/06/12 01:17:16;;;;;;;;;;;;;;;14.86;100.00;96419.72;1027074;28;19954;-71
2022/06/12 01:17:46;;;;;;;;;;;;;;;14.89;100.00;96426.28;1028089;28;20443;-70
2022/06/12 01:18:19;;;;;;;;;;;;;;;14.90;100.00;96422.59;1027376;28;20012;-71
2022/06/12 01:18:51;;;;;;;;;;;;;;;14.89;100.00;96419.16;1030643;28;20433;-71
2022/06/12 01:19:25;;;;;;;;;;;;;;;14.90;100.00;96422.59;1027794;28;19910;-73
2022/06/12 01:19:56;;;;;;;;;;;;;;;14.87;100.00;96420.50;1028958;28;19918;-74
2022/06/12 01:20:27;;;;;;;;;;;;;;;14.88;100.00;96419.41;1024809;28;20283;-71
2022/06/12 01:21:03;;;;;;;;;;;;;;;14.85;100.00;96416.28;1023892;28;20419;-73
2022/06/12 01:21:37;;;;;;;;;;;;;;;14.83;100.00;96421.03;1028166;28;19973;-71
2022/06/12 01:22:26;;;;;;;;;;;;;;;14.80;100.00;96428.72;1032729;28;19983;-70
2022/06/12 01:23:22;;;;;;;;;;;;;;;14.85;100.00;96416.28;1039468;28;19943;-71
2022/06/12 01:24:02;;;;;;;;;;;;;;;14.81;100.00;96414.44;1022542;29;20619;-71
2022/06/12 01:24:51;;;;;;;;;;;;;;;14.80;100.00;96412.88;1028043;28;20009;-71
2022/06/12 01:25:33;;;;;;;;;;;;;;;14.76;100.00;96417.91;1035023;28;19917;-71
2022/06/12 01:26:18;;;;;;;;;;;;;;;14.72;100.00;96416.06;1030970;28;19941;-71
2022/06/12 01:27:02;;;;;;;;;;;;;;;14.69;100.00;96421.88;1034481;28;19972;-71
2022/06/12 01:27:32;;;;;;;;;;;;;;;14.66;100.00;96415.31;1031059;28;20005;-73
2022/06/12 01:28:09;;;;;;;;;;;;;;;14.65;100.00;96415.56;1031071;28;19920;-71
2022/06/12 01:28:40;;;;;;;;;;;;;;;14.59;100.00;96420.09;1031001;28;19924;-72
2022/06/12 01:29:17;;;;;;;;;;;;;;;14.60;100.00;96419.81;1032188;28;20428;-71
2022/06/12 01:29:52;;;;;;;;;;;;;;;14.59;100.00;96418.25;1035372;28;20704;-70
2022/06/12 01:30:36;;;;;;;;;;;;;;;14.62;100.00;96422.22;1035082;28;19928;-71
2022/06/12 01:31:12;;;;;;;;;;;;;;;14.61;100.00;96417.97;1027141;28;19914;-70
2022/06/12 01:31:48;;;;;;;;;;;;;;;14.59;100.00;96418.25;1027059;28;19933;-72
2022/06/12 01:32:18;;;;;;;;;;;;;;;14.58;100.00;96415.88;1033227;28;20422;-68
2022/06/12 01:33:07;;;;;;;;;;;;;;;14.57;100.00;96409.00;1039169;28;19972;-70
2022/06/12 01:33:40;;;;;;;;;;;;;;;14.59;100.00;96414.81;1039275;28;19921;-71
2022/06/12 01:34:13;;;;;;;;;;;;;;;14.60;100.00;96414.53;1033718;28;19953;-71
2022/06/12 01:34:46;;;;;;;;;;;;;;;14.60;100.00;96413.75;1029720;28;20012;-69
2022/06/12 01:35:27;;;;;;;;;;;;;;;14.59;100.00;96412.19;1023168;29;19949;-71
2022/06/12 01:36:02;;;;;;;;;;;;;;;14.57;100.00;96420.34;1031211;28;19925;-69
2022/06/12 01:36:43;;;;;;;;;;;;;;;14.56;100.00;96415.38;1037253;28;20481;-71
2022/06/12 01:37:13;;;;;;;;;;;;;;;14.54;100.00;96414.81;1034871;28;20425;-70
2022/06/12 01:37:52;;;;;;;;;;;;;;;14.52;100.00;96411.66;1037008;28;19916;-71
2022/06/12 01:38:25;;;;;;;;;;;;;;;14.53;100.00;96415.91;1039093;28;19913;-72
2022/06/12 01:39:03;;;;;;;;;;;;;;;14.50;100.00;96416.41;1040399;28;19914;-71
2022/06/12 01:39:37;;;;;;;;;;;;;;;14.50;100.00;96413.78;1035087;28;19914;-71
2022/06/12 01:40:30;;;;;;;;;;;;;;;14.45;100.00;96411.13;1035016;28;19921;-70
2022/06/12 01:41:01;;;;;;;;;;;;;;;14.43;100.00;96408.00;1026505;28;19910;-73
2022/06/12 01:41:50;;;;;;;;;;;;;;;14.45;100.00;96414.56;1022580;29;19906;-72
2022/06/12 01:42:25;;;;;;;;;;;;;;;14.40;100.00;96414.59;1034695;28;20541;-70
2022/06/12 01:43:00;;;;;;;;;;;;;;;14.36;100.00;96413.56;1034944;28;19920;-71
2022/06/12 01:43:43;;;;;;;;;;;;;;;14.33;100.00;96420.16;1034709;28;19913;-70
2022/06/12 01:44:32;;;;;;;;;;;;;;;14.35;100.00;96412.78;1030972;28;19913;-71
2022/06/12 01:45:05;;;;;;;;;;;;;;;14.33;100.00;96414.88;1035233;28;19920;-73
2022/06/12 01:45:39;;;;;;;;;;;;;;;14.31;100.00;96421.47;1039212;28;19996;-71
2022/06/12 01:46:19;;;;;;;;;;;;;;;14.30;100.00;96409.34;1042281;28;19916;-70
2022/06/12 01:46:54;;;;;;;;;;;;;;;14.31;100.00;96417.00;1027310;28;19922;-71
2022/06/12 01:47:24;;;;;;;;;;;;;;;14.26;100.00;96414.38;1023133;28;19910;-69
2022/06/12 01:48:25;;;;;;;;;;;;;;;14.23;100.00;96417.56;1027067;28;19914;-71
2022/06/12 01:49:07;;;;;;;;;;;;;;;14.20;100.00;96412.03;1025905;28;19917;-71
2022/06/12 01:49:57;;;;;;;;;;;;;;;14.18;100.00;96409.63;1020885;29;20001;-67
2022/06/12 01:50:33;;;;;;;;;;;;;;;14.16;100.00;96411.78;1018729;29;19965;-70
2022/06/12 01:51:15;;;;;;;;;;;;;;;14.16;100.00;96409.13;1035037;28;19917;-68
2022/06/12 01:52:05;;;;;;;;;;;;;;;14.14;100.00;96419.16;1034991;28;20014;-70
2022/06/12 01:52:52;;;;;;;;;;;;;;;14.11;100.00;96409.13;1022367;29;20057;-70
2022/06/12 01:53:35;;;;;;;;;;;;;;;14.10;100.00;96410.19;1019396;28;19919;-71
2022/06/12 01:54:25;;;;;;;;;;;;;;;14.10;100.00;96418.13;1030997;28;19980;-72
2022/06/12 01:55:06;;;;;;;;;;;;;;;14.09;100.00;96409.41;1035625;28;20391;-70
2022/06/12 01:55:39;;;;;;;;;;;;;;;14.10;100.00;96410.19;1038465;28;20345;-70
2022/06/12 01:56:33;;;;;;;;;;;;;;;14.09;100.00;96411.25;1038051;28;20375;-72
2022/06/12 01:57:05;;;;;;;;;;;;;;;14.11;100.00;96411.78;1039457;28;19917;-69
2022/06/12 01:57:40;;;;;;;;;;;;;;;14.11;100.00;96409.91;1039235;28;19923;-71
2022/06/12 01:58:22;;;;;;;;;;;;;;;14.11;100.00;96407.28;1035094;28;20016;-70
2022/06/12 01:58:59;;;;;;;;;;;;;;;14.09;100.00;96413.91;1034882;28;20275;-70
2022/06/12 01:59:41;;;;;;;;;;;;;;;14.06;100.00;96407.31;1034964;28;20465;-71
2022/06/12 02:00:12;;;;;;;;;;;;;;;14.04;100.00;96411.25;1039522;28;19913;-70
2022/06/12 02:00:45;;;;;;;;;;;;;;;14.01;100.00;96409.16;1031347;28;19925;-72
2022/06/12 02:01:17;;;;;;;;;;;;;;;13.98;100.00;96409.69;1029339;28;19926;-73
2022/06/12 02:01:47;;;;;;;;;;;;;;;13.97;100.00;96405.47;1027325;28;19989;-70
2022/06/12 02:02:26;;;;;;;;;;;;;;;13.97;100.00;96410.75;1027937;28;19985;-70
2022/06/12 02:03:14;;;;;;;;;;;;;;;13.91;100.00;96408.13;1032848;28;19960;-69
2022/06/12 02:03:54;;;;;;;;;;;;;;;13.85;100.00;96414.47;1034831;28;19968;-72
2022/06/12 02:04:27;;;;;;;;;;;;;;;13.82;100.00;96412.38;1031203;28;20306;-68
2022/06/12 02:05:09;;;;;;;;;;;;;;;13.79;100.00;96410.25;1031369;28;20294;-70
2022/06/12 02:05:40;;;;;;;;;;;;;;;13.78;100.00;96413.97;1034480;28;19913;-71
2022/06/12 02:06:39;;;;;;;;;;;;;;;13.76;100.00;96413.44;1037352;28;20626;-70
2022/06/12 02:07:09;;;;;;;;;;;;;;;13.75;100.00;96413.69;1026231;28;20375;-70
2022/06/12 02:07:40;;;;;;;;;;;;;;;13.77;100.00;96412.38;1039170;28;19921;-69
2022/06/12 02:08:13;;;;;;;;;;;;;;;13.75;100.00;96411.84;1032180;28;19955;-70
2022/06/12 02:08:49;;;;;;;;;;;;;;;13.72;100.00;96415.03;1030869;28;20505;-69
2022/06/12 02:09:23;;;;;;;;;;;;;;;13.72;100.00;96414.25;1035527;28;19925;-72
2022/06/12 02:09:59;;;;;;;;;;;;;;;13.70;100.00;96419.75;1033686;28;19918;-71
2022/06/12 02:10:30;;;;;;;;;;;;;;;13.65;100.00;96420.56;1035476;28;19909;-70
2022/06/12 02:13:39;;;;;;;;;;;;;;;13.50;100.00;96420.56;1031321;28;19918;-71
2022/06/12 02:14:10;;;;;;;;;;;;;;;13.50;100.00;96425.03;1030956;28;20284;-72
2022/06/12 02:14:48;;;;;;;;;;;;;;;13.49;100.00;96426.09;1031294;28;19925;-70
2022/06/12 02:15:23;;;;;;;;;;;;;;;13.46;100.00;96418.72;1032636;28;20005;-69
2022/06/12 02:15:57;;;;;;;;;;;;;;;13.43;100.00;96420.81;1031412;28;19914;-69
2022/06/12 02:16:29;;;;;;;;;;;;;;;13.43;100.00;96420.81;1032438;28;20003;-73
2022/06/12 02:16:59;;;;;;;;;;;;;;;13.38;100.00;96420.84;1031382;28;19914;-70
2022/06/12 02:17:34;;;;;;;;;;;;;;;13.36;100.00;96417.66;1031361;28;19933;-70
2022/06/12 02:18:20;;;;;;;;;;;;;;;13.32;100.00;96421.88;1031993;28;19953;-69
2022/06/12 02:18:51;;;;;;;;;;;;;;;13.29;100.00;96417.13;1037994;28;19955;-70
2022/06/12 02:19:24;;;;;;;;;;;;;;;13.26;100.00;96420.28;1042325;28;19912;-72
2022/06/12 02:19:54;;;;;;;;;;;;;;;13.27;100.00;96416.59;1039419;28;19941;-70
2022/06/12 02:20:25;;;;;;;;;;;;;;;13.25;100.00;96421.34;1037324;28;19916;-70
2022/06/12 02:21:08;;;;;;;;;;;;;;;13.21;100.00;96420.25;1031346;28;19910;-70
2022/06/12 02:21:41;;;;;;;;;;;;;;;13.19;100.00;96417.09;1033270;28;19961;-70
2022/06/12 02:22:20;;;;;;;;;;;;;;;13.16;100.00;96422.88;1032989;28;19910;-71
2022/06/12 02:22:50;;;;;;;;;;;;;;;13.13;100.00;96418.13;1031309;28;19917;-70
2022/06/12 02:23:22;;;;;;;;;;;;;;;13.14;100.00;96427.59;1028889;28;20005;-70
2022/06/12 02:23:52;;;;;;;;;;;;;;;13.10;100.00;96423.91;1024604;28;20381;-70
2022/06/12 02:24:27;;;;;;;;;;;;;;;13.08;100.00;96420.78;1027563;28;19969;-69
2022/06/12 02:25:07;;;;;;;;;;;;;;;13.04;100.00;96424.97;1032256;28;20407;-70
2022/06/12 02:25:39;;;;;;;;;;;;;;;12.98;100.00;96421.53;1029201;28;20001;-70
2022/06/12 02:26:10;;;;;;;;;;;;;;;12.99;100.00;96423.13;1031357;28;20458;-70
2022/06/12 02:26:40;;;;;;;;;;;;;;;12.97;100.00;96425.22;1032942;28;20600;-71
2022/06/12 02:27:16;;;;;;;;;;;;;;;12.94;100.00;96429.19;1035357;28;19960;-70
2022/06/12 02:27:49;;;;;;;;;;;;;;;12.92;100.00;96428.63;1032737;28;19914;-70
2022/06/12 02:28:20;;;;;;;;;;;;;;;12.89;100.00;96434.41;1031318;28;19953;-70
2022/06/12 02:28:52;;;;;;;;;;;;;;;12.88;100.00;96432.06;1032275;28;19910;-69
2022/06/12 02:29:22;;;;;;;;;;;;;;;12.87;100.00;96427.81;1032030;28;19917;-70
2022/06/12 02:29:56;;;;;;;;;;;;;;;12.86;100.00;96429.66;1031574;28;19913;-70
2022/06/12 02:30:46;;;;;;;;;;;;;;;12.86;100.00;96429.66;1031162;28;20310;-69
2022/06/12 02:31:18;;;;;;;;;;;;;;;12.81;100.00;96429.66;1030464;28;20023;-70
2022/06/12 02:31:49;;;;;;;;;;;;;;;12.82;100.00;96431.25;1030599;28;19917;-70
2022/06/12 02:32:20;;;;;;;;;;;;;;;12.85;100.00;96427.31;1033493;28;19913;-69
2022/06/12 02:33:03;;;;;;;;;;;;;;;12.85;100.00;96433.38;1031762;28;19910;-70
2022/06/12 02:33:38;;;;;;;;;;;;;;;12.84;100.00;96436.25;1037454;28;19963;-71
2022/06/12 02:34:09;;;;;;;;;;;;;;;12.85;100.00;96427.31;1035230;28;19909;-70
2022/06/12 02:34:40;;;;;;;;;;;;;;;12.83;100.00;96430.19;1031387;28;19913;-71
2022/06/12 02:35:31;;;;;;;;;;;;;;;12.79;100.00;96434.41;1027960;28;19929;-70
2022/06/12 02:36:06;;;;;;;;;;;;;;;12.78;100.00;96432.03;1033673;28;20326;-71
2022/06/12 02:36:38;;;;;;;;;;;;;;;12.78;100.00;96432.81;1038865;28;19909;-70
2022/06/12 02:37:11;;;;;;;;;;;;;;;12.81;100.00;96437.56;1038763;28;20516;-71
2022/06/12 02:37:43;;;;;;;;;;;;;;;12.78;100.00;96435.44;1035483;28;19914;-70
2022/06/12 02:38:15;;;;;;;;;;;;;;;12.76;100.00;96429.63;1035473;28;19909;-70
2022/06/12 02:38:46;;;;;;;;;;;;;;;12.78;100.00;96427.56;1036009;28;19917;-71
2022/06/12 02:39:24;;;;;;;;;;;;;;;12.79;100.00;96433.59;1035220;28;19914;-71
2022/06/12 02:39:56;;;;;;;;;;;;;;;12.80;100.00;96438.59;1031429;28;19914;-70
2022/06/12 02:40:31;;;;;;;;;;;;;;;12.82;100.00;96431.25;1032724;28;19921;-69
2022/06/12 02:41:06;;;;;;;;;;;;;;;12.82;100.00;96428.59;1032966;28;19982;-70
2022/06/12 02:41:40;;;;;;;;;;;;;;;12.90;100.00;96425.47;1027410;28;20389;-70
2022/06/12 02:42:16;;;;;;;;;;;;;;;12.90;100.00;96433.34;1028350;28;19965;-71
2022/06/12 02:42:46;;;;;;;;;;;;;;;12.95;100.00;96432.59;1028902;28;20350;-72
2022/06/12 02:43:18;;;;;;;;;;;;;;;12.94;100.00;96425.72;1028583;28;19925;-68
2022/06/12 02:43:48;;;;;;;;;;;;;;;12.92;100.00;96428.63;1031314;28;20338;-70
2022/06/12 02:44:57;;;;;;;;;;;;;;;12.96;100.00;96428.91;1027531;28;19921;-71
2022/06/12 02:45:30;;;;;;;;;;;;;;;12.93;100.00;96424.16;1023925;28;19910;-70
2022/06/12 02:46:02;;;;;;;;;;;;;;;12.96;100.00;96421.78;1026992;28;19918;-70
2022/06/12 02:46:36;;;;;;;;;;;;;;;13.03;100.00;96420.75;1026925;28;19919;-69
2022/06/12 02:47:10;;;;;;;;;;;;;;;13.04;100.00;96427.59;1026962;28;19921;-71
2022/06/12 02:47:40;;;;;;;;;;;;;;;13.02;100.00;96429.72;1020056;29;19937;-72
2022/06/12 02:48:10;;;;;;;;;;;;;;;13.03;100.00;96418.13;1019103;29;19919;-70
2022/06/12 02:48:41;;;;;;;;;;;;;;;13.01;100.00;96428.13;1019142;29;19969;-69
2022/06/12 02:49:11;;;;;;;;;;;;;;;12.98;100.00;96424.19;1015863;29;20454;-70
2022/06/12 02:49:46;;;;;;;;;;;;;;;12.95;100.00;96430.75;1019057;29;20038;-71
2022/06/12 02:50:16;;;;;;;;;;;;;;;12.91;100.00;96427.06;1019097;29;19913;-71
2022/06/12 02:51:07;;;;;;;;;;;;;;;12.89;100.00;96429.16;1019665;29;19996;-70
2022/06/12 02:51:37;;;;;;;;;;;;;;;12.95;100.00;96425.47;1027985;28;19945;-70
2022/06/12 02:52:08;;;;;;;;;;;;;;;12.94;100.00;96431.00;1038017;28;19906;-68
2022/06/12 02:52:41;;;;;;;;;;;;;;;12.93;100.00;96424.94;1041902;28;20253;-71
2022/06/12 02:53:19;;;;;;;;;;;;;;;12.95;100.00;96428.13;1043542;28;19916;-71
2022/06/12 02:54:00;;;;;;;;;;;;;;;12.96;100.00;96426.28;1039256;28;19944;-70
2022/06/12 02:54:34;;;;;;;;;;;;;;;12.91;100.00;96428.88;1035194;28;19949;-74
2022/06/12 02:55:07;;;;;;;;;;;;;;;12.90;100.00;96437.84;1031278;28;19906;-70
2022/06/12 02:55:44;;;;;;;;;;;;;;;12.92;100.00;96431.28;1033595;28;19929;-70
2022/06/12 02:56:19;;;;;;;;;;;;;;;12.91;100.00;96431.50;1033215;28;19906;-70
2022/06/12 02:56:51;;;;;;;;;;;;;;;12.93;100.00;96430.22;1033096;28;20037;-71
2022/06/12 02:57:42;;;;;;;;;;;;;;;12.96;100.00;96434.16;1035371;28;19917;-71
2022/06/12 02:58:38;;;;;;;;;;;;;;;13.01;100.00;96430.75;1037816;28;19982;-70
2022/06/12 02:59:21;;;;;;;;;;;;;;;13.01;100.00;96425.47;1037507;28;19962;-70
2022/06/12 03:00:00;;;;;;;;;;;;;;;12.96;100.00;96427.06;1033944;28;19921;-72
2022/06/12 03:00:40;;;;;;;;;;;;;;;12.98;100.00;96429.44;1039272;28;19962;-71
2022/06/12 03:01:12;;;;;;;;;;;;;;;13.01;100.00;96421.03;1037554;28;19972;-71
2022/06/12 03:01:45;;;;;;;;;;;;;;;13.02;100.00;96427.88;1035260;28;20000;-70
2022/06/12 03:02:21;;;;;;;;;;;;;;;13.04;100.00;96419.69;1033378;28;19917;-68
2022/06/12 03:02:53;;;;;;;;;;;;;;;13.07;100.00;96421.81;1034683;28;19924;-71